createdAt,value
2018-11-21T00:00:11.948Z,41.50
2018-11-21T00:01:11.952Z,42.20
2018-11-21T00:02:11.914Z,44.10
2018-11-21T00:03:11.909Z,41.10
2018-11-21T00:04:11.894Z,42.20
2018-11-21T00:05:11.881Z,42.40
2018-11-21T00:06:11.896Z,44.10
2018-11-21T00:07:11.865Z,42.70
2018-11-21T00:08:11.854Z,43.90
2018-11-21T00:09:11.848Z,45.00
2018-11-21T00:10:11.880Z,44.60
2018-11-21T00:11:11.834Z,45.40
2018-11-21T00:12:11.812Z,44.00
2018-11-21T00:13:11.804Z,43.20
2018-11-21T00:14:11.805Z,45.20
2018-11-21T00:15:11.778Z,42.60
2018-11-21T00:16:11.793Z,43.40
2018-11-21T00:17:11.757Z,46.10
2018-11-21T00:18:11.751Z,46.20
2018-11-21T00:19:11.740Z,44.70
2018-11-21T00:20:11.729Z,43.80
2018-11-21T00:21:11.719Z,47.30
2018-11-21T00:22:11.729Z,44.00
2018-11-21T00:23:11.694Z,44.60
2018-11-21T00:24:11.681Z,43.90
2018-11-21T00:25:11.675Z,43.80
2018-11-21T00:26:11.709Z,43.50
2018-11-21T00:27:11.673Z,44.00
2018-11-21T00:28:11.672Z,43.90
2018-11-21T00:29:11.639Z,43.10
2018-11-21T00:30:11.623Z,41.40
2018-11-21T00:31:11.615Z,45.10
2018-11-21T00:32:11.604Z,42.30
2018-11-21T00:33:11.614Z,41.60
2018-11-21T00:34:11.578Z,43.50
2018-11-21T00:35:11.568Z,41.40
2018-11-21T00:36:11.554Z,42.40
2018-11-21T00:37:11.547Z,42.30
2018-11-21T00:38:11.567Z,39.20
2018-11-21T00:39:11.553Z,41.60
2018-11-21T00:40:11.541Z,42.20
2018-11-21T00:41:11.508Z,41.60
2018-11-21T00:42:11.496Z,41.10
2018-11-21T00:43:11.486Z,39.40
2018-11-21T00:44:11.477Z,39.70
2018-11-21T00:45:11.481Z,41.30
2018-11-21T00:46:11.450Z,40.80
2018-11-21T00:47:11.437Z,41.40
2018-11-21T00:48:11.428Z,40.50
2018-11-21T00:49:11.424Z,39.00
2018-11-21T00:50:11.436Z,38.70
2018-11-21T00:51:11.402Z,40.10
2018-11-21T00:52:11.392Z,38.30
2018-11-21T00:53:11.379Z,39.00
2018-11-21T00:54:11.365Z,38.20
2018-11-21T00:55:11.355Z,38.40
2018-11-21T00:56:11.359Z,39.20
2018-11-21T00:57:11.334Z,39.70
2018-11-21T00:58:11.326Z,39.70
2018-11-21T00:59:11.328Z,40.10
2018-11-21T01:00:11.299Z,39.60
2018-11-21T01:01:11.321Z,41.50
2018-11-21T01:02:11.282Z,40.90
2018-11-21T01:03:11.281Z,42.40
2018-11-21T01:04:11.286Z,43.40
2018-11-21T01:05:11.251Z,41.10
2018-11-21T01:06:11.238Z,42.70
2018-11-21T01:07:11.225Z,40.90
2018-11-21T01:08:11.240Z,43.30
2018-11-21T01:09:11.229Z,42.30
2018-11-21T01:10:11.197Z,40.70
2018-11-21T01:11:11.213Z,43.40
2018-11-21T01:12:11.178Z,42.50
2018-11-21T01:13:11.171Z,41.50
2018-11-21T01:14:11.181Z,40.00
2018-11-21T01:15:11.145Z,40.00
2018-11-21T01:16:11.137Z,41.90
2018-11-21T01:17:11.124Z,41.20
2018-11-21T01:18:11.111Z,39.10
2018-11-21T01:19:11.124Z,40.70
2018-11-21T01:20:11.090Z,40.80
2018-11-21T01:21:11.082Z,40.90
2018-11-21T01:22:11.071Z,41.70
2018-11-21T01:23:11.063Z,41.00
2018-11-21T01:24:11.054Z,42.40
2018-11-21T01:25:11.069Z,41.20
2018-11-21T01:26:11.029Z,42.30
2018-11-21T01:27:11.015Z,43.00
2018-11-21T01:28:11.005Z,41.40
2018-11-21T01:29:10.995Z,41.70
2018-11-21T01:30:10.995Z,42.30
2018-11-21T01:31:11.007Z,41.40
2018-11-21T01:32:10.963Z,40.40
2018-11-21T01:33:10.954Z,43.30
2018-11-21T01:34:10.945Z,39.70
2018-11-21T01:35:10.940Z,42.10
2018-11-21T01:36:10.927Z,43.90
2018-11-21T01:37:10.932Z,42.40
2018-11-21T01:38:10.899Z,42.90
2018-11-21T01:39:10.912Z,44.00
2018-11-21T01:40:10.877Z,40.60
2018-11-21T01:41:10.874Z,40.40
2018-11-21T01:42:10.861Z,40.40
2018-11-21T01:43:10.855Z,41.20
2018-11-21T01:44:10.843Z,42.20
2018-11-21T01:45:10.863Z,39.50
2018-11-21T01:46:10.821Z,39.10
2018-11-21T01:47:10.806Z,39.40
2018-11-21T01:48:10.801Z,37.30
2018-11-21T01:49:10.788Z,40.10
2018-11-21T01:50:10.777Z,39.10
2018-11-21T01:51:10.788Z,39.10
2018-11-21T01:52:10.751Z,39.50
2018-11-21T01:53:10.763Z,39.70
2018-11-21T01:54:10.777Z,39.00
2018-11-21T01:55:10.726Z,38.00
2018-11-21T01:56:10.716Z,40.00
2018-11-21T01:57:10.703Z,37.70
2018-11-21T01:58:10.693Z,37.20
2018-11-21T01:59:10.695Z,36.80
2018-11-21T02:00:10.676Z,37.40
2018-11-21T02:01:10.661Z,40.40
2018-11-21T02:02:10.656Z,38.90
2018-11-21T02:03:10.642Z,39.40
2018-11-21T02:04:10.679Z,37.60
2018-11-21T02:05:10.616Z,39.50
2018-11-21T02:06:10.606Z,37.90
2018-11-21T02:07:10.594Z,37.70
2018-11-21T02:08:10.583Z,38.80
2018-11-21T02:09:10.579Z,39.50
2018-11-21T02:10:10.593Z,37.40
2018-11-21T02:11:10.559Z,40.10
2018-11-21T02:12:10.548Z,40.30
2018-11-21T02:13:10.536Z,40.50
2018-11-21T02:14:10.524Z,40.40
2018-11-21T02:15:10.513Z,41.90
2018-11-21T02:16:10.527Z,42.10
2018-11-21T02:17:10.510Z,39.00
2018-11-21T02:18:10.486Z,42.70
2018-11-21T02:19:10.476Z,43.00
2018-11-21T02:20:10.460Z,44.60
2018-11-21T02:21:10.449Z,42.20
2018-11-21T02:22:10.458Z,43.90
2018-11-21T02:23:10.433Z,41.80
2018-11-21T02:24:10.446Z,44.50
2018-11-21T02:25:10.410Z,44.00
2018-11-21T02:26:10.396Z,44.20
2018-11-21T02:27:10.383Z,42.10
2018-11-21T02:28:10.372Z,42.10
2018-11-21T02:29:10.365Z,42.10
2018-11-21T02:30:10.383Z,42.50
2018-11-21T02:31:10.352Z,42.40
2018-11-21T02:32:10.342Z,41.30
2018-11-21T02:33:10.328Z,42.60
2018-11-21T02:34:10.312Z,41.80
2018-11-21T02:35:10.307Z,41.30
2018-11-21T02:36:10.321Z,39.40
2018-11-21T02:37:10.286Z,42.60
2018-11-21T02:38:10.276Z,40.30
2018-11-21T02:39:10.259Z,40.70
2018-11-21T02:40:10.253Z,39.60
2018-11-21T02:41:10.240Z,39.60
2018-11-21T02:42:10.251Z,40.30
2018-11-21T02:43:10.230Z,41.80
2018-11-21T02:44:10.235Z,40.80
2018-11-21T02:45:10.199Z,39.90
2018-11-21T02:46:10.186Z,41.40
2018-11-21T02:47:10.173Z,40.60
2018-11-21T02:48:10.163Z,39.70
2018-11-21T02:49:10.158Z,40.70
2018-11-21T02:50:10.180Z,40.90
2018-11-21T02:51:10.138Z,40.90
2018-11-21T02:52:10.121Z,42.00
2018-11-21T02:53:10.118Z,41.70
2018-11-21T02:54:10.106Z,40.30
2018-11-21T02:55:10.097Z,38.60
2018-11-21T02:56:10.105Z,38.40
2018-11-21T02:57:10.073Z,40.90
2018-11-21T02:58:10.064Z,41.10
2018-11-21T02:59:10.048Z,40.40
2018-11-21T03:00:10.039Z,39.60
2018-11-21T03:01:10.055Z,40.40
2018-11-21T03:02:10.020Z,39.80
2018-11-21T03:03:10.014Z,41.40
2018-11-21T03:04:10.006Z,39.40
2018-11-21T03:05:09.989Z,39.50
2018-11-21T03:06:09.976Z,39.70
2018-11-21T03:07:09.990Z,37.20
2018-11-21T03:08:09.960Z,40.40
2018-11-21T03:09:09.956Z,40.10
2018-11-21T03:10:09.935Z,39.20
2018-11-21T03:11:09.922Z,37.50
2018-11-21T03:12:09.989Z,39.80
2018-11-21T03:13:09.949Z,39.00
2018-11-21T03:14:09.896Z,37.50
2018-11-21T03:15:09.888Z,39.50
2018-11-21T03:16:09.903Z,39.50
2018-11-21T03:17:09.869Z,38.90
2018-11-21T03:18:09.860Z,37.70
2018-11-21T03:19:09.865Z,36.60
2018-11-21T03:20:09.828Z,37.50
2018-11-21T03:21:09.821Z,35.20
2018-11-21T03:22:09.838Z,37.20
2018-11-21T03:23:09.804Z,38.30
2018-11-21T03:24:09.788Z,37.90
2018-11-21T03:25:09.778Z,37.30
2018-11-21T03:26:09.771Z,38.10
2018-11-21T03:27:09.785Z,35.40
2018-11-21T03:28:09.770Z,37.20
2018-11-21T03:29:09.740Z,35.80
2018-11-21T03:30:09.737Z,34.90
2018-11-21T03:31:09.719Z,33.70
2018-11-21T03:32:09.703Z,35.20
2018-11-21T03:33:09.724Z,33.60
2018-11-21T03:34:09.687Z,35.40
2018-11-21T03:35:09.686Z,35.30
2018-11-21T03:36:09.668Z,33.40
2018-11-21T03:37:09.656Z,36.40
2018-11-21T03:38:09.644Z,34.70
2018-11-21T03:39:09.655Z,36.00
2018-11-21T03:40:09.628Z,37.30
2018-11-21T03:41:09.615Z,34.40
2018-11-21T03:42:09.601Z,35.80
2018-11-21T03:43:09.629Z,34.30
2018-11-21T03:44:09.579Z,37.40
2018-11-21T03:45:09.595Z,36.20
2018-11-21T03:46:09.571Z,35.80
2018-11-21T03:47:09.554Z,34.20
2018-11-21T03:48:09.551Z,35.10
2018-11-21T03:49:09.531Z,33.90
2018-11-21T03:50:09.520Z,35.00
2018-11-21T03:51:09.523Z,35.10
2018-11-21T03:52:09.519Z,35.90
2018-11-21T03:53:09.501Z,35.20
2018-11-21T03:54:09.478Z,34.80
2018-11-21T03:55:09.471Z,34.60
2018-11-21T03:56:09.454Z,33.50
2018-11-21T03:57:09.445Z,36.60
2018-11-21T03:58:09.461Z,35.60
2018-11-21T03:59:09.438Z,34.50
2018-11-21T04:00:09.421Z,36.10
2018-11-21T04:01:09.405Z,32.60
2018-11-21T04:02:09.393Z,33.40
2018-11-21T04:03:09.408Z,32.10
2018-11-21T04:04:09.372Z,34.30
2018-11-21T04:05:09.365Z,33.10
2018-11-21T04:06:09.354Z,33.10
2018-11-21T04:07:09.345Z,32.60
2018-11-21T04:08:09.336Z,35.60
2018-11-21T04:09:09.346Z,34.60
2018-11-21T04:10:09.313Z,32.80
2018-11-21T04:11:09.314Z,32.90
2018-11-21T04:12:09.296Z,34.10
2018-11-21T04:13:09.299Z,32.30
2018-11-21T04:14:09.269Z,31.90
2018-11-21T04:15:09.274Z,31.60
2018-11-21T04:16:09.244Z,33.60
2018-11-21T04:17:09.236Z,30.60
2018-11-21T04:18:09.230Z,32.90
2018-11-21T04:19:09.224Z,34.70
2018-11-21T04:20:09.235Z,35.90
2018-11-21T04:21:09.198Z,32.90
2018-11-21T04:22:09.189Z,32.00
2018-11-21T04:23:09.176Z,32.40
2018-11-21T04:24:09.162Z,32.70
2018-11-21T04:25:09.154Z,31.20
2018-11-21T04:26:09.165Z,31.90
2018-11-21T04:27:09.138Z,33.00
2018-11-21T04:28:09.139Z,36.10
2018-11-21T04:29:09.113Z,35.00
2018-11-21T04:30:09.105Z,33.20
2018-11-21T04:31:09.107Z,32.10
2018-11-21T04:32:09.086Z,33.20
2018-11-21T04:33:09.092Z,31.30
2018-11-21T04:34:09.063Z,32.10
2018-11-21T04:35:09.050Z,33.50
2018-11-21T04:36:09.046Z,33.00
2018-11-21T04:37:09.058Z,32.30
2018-11-21T04:38:09.039Z,31.90
2018-11-21T04:39:09.011Z,34.30
2018-11-21T04:40:08.997Z,34.10
2018-11-21T04:41:08.990Z,33.80
2018-11-21T04:42:08.984Z,32.00
2018-11-21T04:43:09.019Z,32.20
2018-11-21T04:44:08.980Z,34.30
2018-11-21T04:45:08.951Z,34.00
2018-11-21T04:46:08.941Z,34.70
2018-11-21T04:47:08.934Z,33.80
2018-11-21T04:48:08.927Z,35.10
2018-11-21T04:49:08.911Z,35.70
2018-11-21T04:50:08.915Z,33.30
2018-11-21T04:51:08.891Z,34.30
2018-11-21T04:52:08.875Z,36.00
2018-11-21T04:53:08.868Z,36.50
2018-11-21T04:54:08.861Z,36.20
2018-11-21T04:55:08.875Z,35.30
2018-11-21T04:56:08.842Z,37.30
2018-11-21T04:57:08.829Z,36.90
2018-11-21T04:58:08.820Z,37.20
2018-11-21T04:59:08.804Z,37.30
2018-11-21T05:00:08.806Z,35.50
2018-11-21T05:01:08.805Z,37.80
2018-11-21T05:02:08.789Z,36.10
2018-11-21T05:03:08.764Z,37.20
2018-11-21T05:04:08.752Z,36.10
2018-11-21T05:05:08.765Z,33.10
2018-11-21T05:06:08.763Z,35.00
2018-11-21T05:07:08.731Z,33.90
2018-11-21T05:08:08.718Z,33.10
2018-11-21T05:09:08.706Z,32.30
2018-11-21T05:10:08.697Z,35.30
2018-11-21T05:11:08.698Z,35.60
2018-11-21T05:12:08.702Z,34.50
2018-11-21T05:13:08.662Z,35.10
2018-11-21T05:14:08.660Z,35.40
2018-11-21T05:15:08.652Z,35.50
2018-11-21T05:16:08.635Z,36.70
2018-11-21T05:17:08.625Z,36.10
2018-11-21T05:18:08.631Z,38.10
2018-11-21T05:19:08.606Z,37.50
2018-11-21T05:20:08.602Z,40.20
2018-11-21T05:21:08.584Z,41.00
2018-11-21T05:22:08.594Z,41.40
2018-11-21T05:23:08.558Z,42.80
2018-11-21T05:24:08.549Z,42.30
2018-11-21T05:25:08.563Z,43.30
2018-11-21T05:26:08.535Z,44.00
2018-11-21T05:27:08.526Z,43.30
2018-11-21T05:28:08.514Z,42.60
2018-11-21T05:29:08.501Z,42.60
2018-11-21T05:30:08.507Z,43.50
2018-11-21T05:31:08.476Z,42.90
2018-11-21T05:32:08.473Z,41.90
2018-11-21T05:33:08.461Z,44.00
2018-11-21T05:34:08.448Z,41.20
2018-11-21T05:35:08.478Z,43.40
2018-11-21T05:36:08.425Z,43.70
2018-11-21T05:37:08.418Z,43.10
2018-11-21T05:38:08.411Z,44.50
2018-11-21T05:39:08.401Z,42.90
2018-11-21T05:40:08.390Z,44.30
2018-11-21T05:41:08.394Z,43.30
2018-11-21T05:42:08.366Z,43.60
2018-11-21T05:43:08.353Z,44.40
2018-11-21T05:44:08.359Z,43.80
2018-11-21T05:45:08.358Z,42.40
2018-11-21T05:46:08.327Z,42.70
2018-11-21T05:47:08.320Z,44.10
2018-11-21T05:48:08.300Z,42.30
2018-11-21T05:49:08.320Z,42.00
2018-11-21T05:50:08.303Z,43.00
2018-11-21T05:51:08.276Z,43.30
2018-11-21T05:52:08.288Z,42.50
2018-11-21T05:53:08.255Z,42.80
2018-11-21T05:54:08.240Z,43.60
2018-11-21T05:55:08.250Z,41.50
2018-11-21T05:56:08.222Z,41.50
2018-11-21T05:57:08.209Z,41.50
2018-11-21T05:58:08.201Z,42.10
2018-11-21T05:59:08.212Z,41.80
2018-11-21T06:00:08.207Z,42.30
2018-11-21T06:01:08.178Z,42.40
2018-11-21T06:02:08.158Z,42.60
2018-11-21T06:03:08.146Z,44.10
2018-11-21T06:04:08.142Z,42.90
2018-11-21T06:05:08.135Z,43.10
2018-11-21T06:06:10.106Z,43.00
2018-11-21T06:07:08.105Z,40.90
2018-11-21T06:08:08.097Z,41.30
2018-11-21T06:09:08.085Z,41.10
2018-11-21T06:10:08.077Z,43.30
2018-11-21T06:11:08.069Z,42.60
2018-11-21T06:12:08.085Z,42.40
2018-11-21T06:13:08.048Z,42.40
2018-11-21T06:14:08.034Z,43.60
2018-11-21T06:15:08.022Z,47.20
2018-11-21T06:16:08.011Z,47.30
2018-11-21T06:17:08.021Z,46.50
2018-11-21T06:18:08.018Z,46.60
2018-11-21T06:19:08.011Z,45.60
2018-11-21T06:20:08.002Z,47.10
2018-11-21T06:21:07.966Z,47.30
2018-11-21T06:22:07.970Z,48.30
2018-11-21T06:23:07.944Z,47.30
2018-11-21T06:24:07.937Z,47.70
2018-11-21T06:25:07.944Z,47.50
2018-11-21T06:26:07.908Z,45.80
2018-11-21T06:27:07.896Z,43.20
2018-11-21T06:28:07.892Z,45.90
2018-11-21T06:29:07.876Z,44.40
2018-11-21T06:30:07.868Z,46.10
2018-11-21T06:31:07.879Z,46.30
2018-11-21T06:32:07.876Z,45.10
2018-11-21T06:33:07.839Z,47.00
2018-11-21T06:34:07.829Z,44.70
2018-11-21T06:35:07.813Z,43.60
2018-11-21T06:36:07.821Z,45.00
2018-11-21T06:37:07.796Z,44.20
2018-11-21T06:38:07.801Z,43.10
2018-11-21T06:39:07.775Z,45.70
2018-11-21T06:40:07.760Z,45.70
2018-11-21T06:41:07.756Z,44.00
2018-11-21T06:42:07.743Z,46.30
2018-11-21T06:43:07.753Z,44.40
2018-11-21T06:44:07.751Z,41.70
2018-11-21T06:45:07.716Z,44.70
2018-11-21T06:46:07.699Z,46.60
2018-11-21T06:47:07.686Z,42.50
2018-11-21T06:48:07.675Z,43.60
2018-11-21T06:49:07.677Z,45.60
2018-11-21T06:50:28.657Z,44.60
2018-11-21T06:51:07.679Z,42.90
2018-11-21T06:52:07.634Z,43.50
2018-11-21T06:53:07.627Z,41.80
2018-11-21T06:54:07.618Z,44.70
2018-11-21T06:55:07.611Z,42.90
2018-11-21T06:56:07.599Z,41.80
2018-11-21T06:57:07.605Z,41.30
2018-11-21T06:58:07.606Z,43.00
2018-11-21T06:59:07.561Z,42.30
2018-11-21T07:00:07.553Z,42.80
2018-11-21T07:01:07.608Z,41.60
2018-11-21T07:02:07.557Z,40.90
2018-11-21T07:03:07.526Z,40.20
2018-11-21T07:04:07.520Z,41.50
2018-11-21T07:05:07.503Z,40.40
2018-11-21T07:06:07.515Z,39.60
2018-11-21T07:07:07.476Z,40.20
2018-11-21T07:08:07.477Z,40.20
2018-11-21T07:09:07.470Z,40.10
2018-11-21T07:10:07.450Z,37.90
2018-11-21T07:11:07.434Z,38.70
2018-11-21T07:12:07.446Z,39.40
2018-11-21T07:13:10.985Z,40.10
2018-11-21T07:14:07.432Z,36.00
2018-11-21T07:15:07.400Z,39.10
2018-11-21T07:16:07.393Z,40.30
2018-11-21T07:17:07.409Z,40.50
2018-11-21T07:18:07.363Z,40.00
2018-11-21T07:19:07.350Z,38.80
2018-11-21T07:20:07.357Z,38.60
2018-11-21T07:21:07.335Z,40.10
2018-11-21T07:22:07.393Z,38.40
2018-11-21T07:23:07.344Z,39.80
2018-11-21T07:24:07.332Z,37.60
2018-11-21T07:25:07.293Z,37.30
2018-11-21T07:26:07.285Z,36.10
2018-11-21T07:27:07.291Z,39.70
2018-11-21T07:28:12.977Z,39.50
2018-11-21T07:29:07.251Z,37.40
2018-11-21T07:30:07.243Z,39.30
2018-11-21T07:31:07.481Z,38.80
2018-11-21T07:32:07.250Z,39.80
2018-11-21T07:33:07.220Z,39.80
2018-11-21T07:34:07.202Z,39.50
2018-11-21T07:35:07.191Z,37.70
2018-11-21T07:36:07.186Z,38.50
2018-11-21T07:37:07.185Z,39.50
2018-11-21T07:38:07.155Z,40.20
2018-11-21T07:39:07.149Z,40.70
2018-11-21T07:40:07.144Z,45.60
2018-11-21T07:41:07.126Z,45.40
2018-11-21T07:42:07.138Z,45.90
2018-11-21T07:43:07.100Z,49.40
2018-11-21T07:44:07.091Z,54.00
2018-11-21T07:45:07.082Z,51.70
2018-11-21T07:46:07.077Z,55.30
2018-11-21T07:47:07.071Z,56.00
2018-11-21T07:48:07.085Z,54.70
2018-11-21T07:49:07.046Z,52.00
2018-11-21T07:50:07.033Z,50.90
2018-11-21T07:51:07.017Z,50.10
2018-11-21T07:52:07.007Z,46.90
2018-11-21T07:53:07.001Z,48.70
2018-11-21T07:54:07.009Z,47.20
2018-11-21T07:55:06.994Z,48.40
2018-11-21T07:56:06.964Z,47.80
2018-11-21T07:57:06.968Z,46.30
2018-11-21T07:58:06.948Z,50.60
2018-11-21T07:59:06.958Z,48.00
2018-11-21T08:00:06.926Z,47.70
2018-11-21T08:01:06.924Z,50.00
2018-11-21T08:02:06.903Z,49.30
2018-11-21T08:03:06.889Z,48.90
2018-11-21T08:04:06.897Z,44.20
2018-11-21T08:05:06.887Z,46.70
2018-11-21T08:06:06.883Z,47.40
2018-11-21T08:07:06.858Z,47.70
2018-11-21T08:08:06.869Z,46.10
2018-11-21T08:09:06.880Z,45.20
2018-11-21T08:10:06.817Z,47.50
2018-11-21T08:11:06.810Z,44.10
2018-11-21T08:12:06.799Z,45.10
2018-11-21T08:13:06.789Z,47.10
2018-11-21T08:14:06.784Z,46.40
2018-11-21T08:15:06.780Z,45.30
2018-11-21T08:16:06.751Z,44.40
2018-11-21T08:17:06.742Z,44.90
2018-11-21T08:18:06.735Z,48.20
2018-11-21T08:19:06.743Z,47.80
2018-11-21T08:20:06.715Z,45.40
2018-11-21T08:21:06.701Z,47.10
2018-11-21T08:22:06.687Z,43.80
2018-11-21T08:23:06.675Z,48.60
2018-11-21T08:24:08.034Z,47.20
2018-11-21T08:25:06.655Z,47.70
2018-11-21T08:26:06.647Z,43.60
2018-11-21T08:27:06.639Z,46.20
2018-11-21T08:28:06.623Z,45.70
2018-11-21T08:29:06.612Z,43.40
2018-11-21T08:30:06.624Z,45.00
2018-11-21T08:31:06.600Z,43.30
2018-11-21T08:32:06.593Z,43.60
2018-11-21T08:33:06.573Z,46.80
2018-11-21T08:34:06.559Z,45.20
2018-11-21T08:35:06.563Z,45.20
2018-11-21T08:36:06.539Z,44.20
2018-11-21T08:37:06.531Z,45.60
2018-11-21T08:38:06.519Z,43.10
2018-11-21T08:39:06.524Z,45.40
2018-11-21T08:40:06.545Z,44.30
2018-11-21T08:41:06.487Z,41.50
2018-11-21T08:42:06.500Z,42.50
2018-11-21T08:43:06.463Z,42.90
2018-11-21T08:44:06.458Z,43.00
2018-11-21T08:45:06.446Z,45.50
2018-11-21T08:46:06.432Z,45.60
2018-11-21T08:47:06.445Z,42.80
2018-11-21T08:48:06.435Z,43.80
2018-11-21T08:49:06.401Z,44.60
2018-11-21T08:50:06.393Z,40.90
2018-11-21T08:51:06.385Z,40.50
2018-11-21T08:52:06.370Z,42.50
2018-11-21T08:53:06.363Z,39.70
2018-11-21T08:54:06.367Z,40.10
2018-11-21T08:55:08.998Z,40.60
2018-11-21T08:56:06.372Z,44.10
2018-11-21T08:57:06.339Z,44.10
2018-11-21T08:58:06.311Z,43.20
2018-11-21T08:59:06.348Z,40.60
2018-11-21T09:00:06.285Z,41.60
2018-11-21T09:01:06.273Z,44.70
2018-11-21T09:02:06.275Z,43.50
2018-11-21T09:03:06.271Z,42.30
2018-11-21T09:04:06.244Z,41.80
2018-11-21T09:05:06.263Z,40.60
2018-11-21T09:06:06.224Z,39.10
2018-11-21T09:07:06.211Z,41.70
2018-11-21T09:08:06.200Z,41.90
2018-11-21T09:09:06.186Z,37.10
2018-11-21T09:10:06.202Z,41.40
2018-11-21T09:11:06.174Z,37.00
2018-11-21T09:12:08.668Z,37.70
2018-11-21T09:13:06.186Z,39.30
2018-11-21T09:14:06.133Z,36.80
2018-11-21T09:15:06.124Z,37.90
2018-11-21T09:16:06.117Z,38.20
2018-11-21T09:17:06.114Z,38.60
2018-11-21T09:18:06.090Z,41.20
2018-11-21T09:19:06.097Z,38.30
2018-11-21T09:20:06.073Z,36.10
2018-11-21T09:21:06.062Z,33.90
2018-11-21T09:22:06.056Z,34.50
2018-11-21T09:23:06.041Z,34.70
2018-11-21T09:24:06.049Z,35.10
2018-11-21T09:25:06.026Z,36.00
2018-11-21T09:26:06.006Z,34.30
2018-11-21T09:27:06.000Z,35.90
2018-11-21T09:28:06.000Z,34.00
2018-11-21T09:29:05.991Z,32.70
2018-11-21T09:30:05.969Z,32.60
2018-11-21T09:31:05.975Z,32.90
2018-11-21T09:32:05.944Z,30.30
2018-11-21T09:33:05.931Z,31.40
2018-11-21T09:34:05.929Z,32.40
2018-11-21T09:35:05.914Z,31.60
2018-11-21T09:36:05.929Z,29.60
2018-11-21T09:37:05.901Z,29.60
2018-11-21T09:38:05.881Z,29.20
2018-11-21T09:39:05.899Z,29.20
2018-11-21T09:40:05.862Z,29.60
2018-11-21T09:41:05.846Z,28.10
2018-11-21T09:42:05.842Z,28.60
2018-11-21T09:43:05.854Z,29.30
2018-11-21T09:44:05.852Z,29.00
2018-11-21T09:45:05.855Z,28.20
2018-11-21T09:46:05.795Z,27.40
2018-11-21T09:47:05.805Z,29.20
2018-11-21T09:48:05.779Z,28.20
2018-11-21T09:49:05.769Z,29.30
2018-11-21T09:50:05.751Z,29.40
2018-11-21T09:51:05.766Z,28.80
2018-11-21T09:52:05.737Z,28.10
2018-11-21T09:53:05.720Z,28.30
2018-11-21T09:54:05.716Z,27.20
2018-11-21T09:55:05.703Z,28.90
2018-11-21T09:56:05.701Z,29.60
2018-11-21T09:57:05.709Z,29.00
2018-11-21T09:58:05.714Z,28.80
2018-11-21T09:59:05.678Z,27.20
2018-11-21T10:00:05.653Z,27.30
2018-11-21T10:01:05.637Z,26.50
2018-11-21T10:02:05.634Z,26.10
2018-11-21T10:03:05.645Z,28.00
2018-11-21T10:04:05.607Z,26.60
2018-11-21T10:05:05.594Z,27.30
2018-11-21T10:06:05.594Z,27.80
2018-11-21T10:07:05.577Z,26.40
2018-11-21T10:08:05.566Z,26.20
2018-11-21T10:09:05.580Z,26.30
2018-11-21T10:10:05.583Z,27.20
2018-11-21T10:11:05.531Z,27.00
2018-11-21T10:12:05.522Z,25.90
2018-11-21T10:13:05.508Z,23.30
2018-11-21T10:14:05.522Z,24.90
2018-11-21T10:15:05.492Z,24.20
2018-11-21T10:16:05.480Z,27.90
2018-11-21T10:17:05.475Z,25.00
2018-11-21T10:18:05.474Z,24.30
2018-11-21T10:19:05.449Z,26.80
2018-11-21T10:20:05.436Z,25.20
2018-11-21T10:21:05.428Z,26.80
2018-11-21T10:22:05.441Z,26.80
2018-11-21T10:23:05.403Z,26.30
2018-11-21T10:24:05.393Z,25.20
2018-11-21T10:25:05.379Z,24.40
2018-11-21T10:26:05.389Z,25.30
2018-11-21T10:27:05.361Z,21.50
2018-11-21T10:28:05.368Z,22.20
2018-11-21T10:29:05.342Z,22.80
2018-11-21T10:30:05.330Z,24.00
2018-11-21T10:31:05.316Z,24.40
2018-11-21T10:32:05.309Z,22.00
2018-11-21T10:33:05.310Z,22.50
2018-11-21T10:34:05.305Z,21.80
2018-11-21T10:35:05.276Z,23.50
2018-11-21T10:36:05.267Z,22.30
2018-11-21T10:37:05.249Z,22.80
2018-11-21T10:38:05.245Z,22.20
2018-11-21T10:39:05.251Z,22.70
2018-11-21T10:40:05.231Z,20.10
2018-11-21T10:41:05.243Z,21.60
2018-11-21T10:42:05.209Z,22.00
2018-11-21T10:43:05.187Z,22.60
2018-11-21T10:44:05.181Z,20.50
2018-11-21T10:45:05.163Z,21.70
2018-11-21T10:46:05.162Z,22.10
2018-11-21T10:47:05.174Z,22.60
2018-11-21T10:48:05.155Z,22.40
2018-11-21T10:49:05.127Z,21.40
2018-11-21T10:50:05.128Z,23.00
2018-11-21T10:51:05.104Z,21.20
2018-11-21T10:52:05.093Z,21.50
2018-11-21T10:53:05.115Z,21.70
2018-11-21T10:54:05.067Z,21.90
2018-11-21T10:55:05.058Z,21.90
2018-11-21T10:56:05.058Z,21.80
2018-11-21T10:57:05.035Z,22.20
2018-11-21T10:58:05.030Z,20.50
2018-11-21T10:59:05.037Z,20.50
2018-11-21T11:00:05.007Z,20.90
2018-11-21T11:01:05.014Z,20.30
2018-11-21T11:02:04.988Z,21.10
2018-11-21T11:03:04.972Z,21.00
2018-11-21T11:04:05.035Z,21.40
2018-11-21T11:05:04.949Z,21.00
2018-11-21T11:06:04.946Z,21.70
2018-11-21T11:07:04.935Z,21.80
2018-11-21T11:08:04.928Z,22.90
2018-11-21T11:09:04.905Z,20.40
2018-11-21T11:10:04.926Z,21.30
2018-11-21T11:11:04.888Z,21.50
2018-11-21T11:12:04.885Z,21.60
2018-11-21T11:13:04.872Z,21.70
2018-11-21T11:14:04.858Z,21.90
2018-11-21T11:15:04.883Z,22.00
2018-11-21T11:16:04.832Z,21.30
2018-11-21T11:17:04.825Z,22.50
2018-11-21T11:18:04.825Z,21.00
2018-11-21T11:19:04.803Z,21.00
2018-11-21T11:20:08.577Z,22.60
2018-11-21T11:21:04.808Z,20.80
2018-11-21T11:22:04.776Z,20.30
2018-11-21T11:23:04.760Z,21.00
2018-11-21T11:24:04.751Z,20.80
2018-11-21T11:25:04.740Z,20.20
2018-11-21T11:26:04.739Z,21.50
2018-11-21T11:27:04.721Z,21.70
2018-11-21T11:28:04.704Z,19.80
2018-11-21T11:29:04.695Z,20.60
2018-11-21T11:30:04.687Z,20.80
2018-11-21T11:31:04.693Z,20.60
2018-11-21T11:32:04.680Z,20.60
2018-11-21T11:33:04.657Z,20.60
2018-11-21T11:34:04.639Z,19.50
2018-11-21T11:35:04.630Z,20.50
2018-11-21T11:36:04.618Z,22.60
2018-11-21T11:37:04.632Z,19.90
2018-11-21T11:38:04.604Z,19.60
2018-11-21T11:39:04.587Z,20.10
2018-11-21T11:40:04.575Z,20.50
2018-11-21T11:41:04.568Z,21.10
2018-11-21T11:42:04.559Z,19.70
2018-11-21T11:43:04.567Z,20.60
2018-11-21T11:44:04.557Z,20.40
2018-11-21T11:45:04.539Z,20.30
2018-11-21T11:46:04.508Z,19.10
2018-11-21T11:47:04.499Z,19.30
2018-11-21T11:48:04.508Z,21.00
2018-11-21T11:49:04.493Z,19.60
2018-11-21T11:50:04.472Z,19.80
2018-11-21T11:51:04.461Z,19.40
2018-11-21T11:52:04.449Z,19.30
2018-11-21T11:53:04.439Z,19.20
2018-11-21T11:54:04.440Z,18.90
2018-11-21T11:55:04.431Z,19.80
2018-11-21T11:56:04.415Z,19.90
2018-11-21T11:57:04.397Z,19.70
2018-11-21T11:58:04.390Z,20.00
2018-11-21T11:59:04.377Z,19.60
2018-11-21T12:00:04.379Z,19.80
2018-11-21T12:01:04.353Z,19.30
2018-11-21T12:02:04.343Z,19.50
2018-11-21T12:03:04.332Z,19.40
2018-11-21T12:04:04.333Z,20.80
2018-11-21T12:05:04.362Z,19.10
2018-11-21T12:06:04.320Z,19.60
2018-11-21T12:07:04.284Z,18.40
2018-11-21T12:08:04.273Z,19.70
2018-11-21T12:09:04.262Z,20.20
2018-11-21T12:10:04.283Z,18.70
2018-11-21T12:11:04.244Z,19.20
2018-11-21T12:12:04.983Z,20.30
2018-11-21T12:13:04.220Z,20.20
2018-11-21T12:14:04.219Z,19.90
2018-11-21T12:15:04.203Z,18.30
2018-11-21T12:16:04.207Z,19.00
2018-11-21T12:17:04.183Z,18.50
2018-11-21T12:18:04.166Z,18.50
2018-11-21T12:19:04.164Z,19.00
2018-11-21T12:20:04.146Z,18.60
2018-11-21T12:21:04.169Z,18.90
2018-11-21T12:22:04.128Z,18.30
2018-11-21T12:23:04.132Z,18.10
2018-11-21T12:24:04.108Z,19.30
2018-11-21T12:25:04.096Z,17.80
2018-11-21T12:26:10.225Z,18.80
2018-11-21T12:27:04.069Z,19.00
2018-11-21T12:28:04.092Z,19.00
2018-11-21T12:29:04.060Z,18.80
2018-11-21T12:30:04.040Z,18.20
2018-11-21T12:31:04.036Z,18.20
2018-11-21T12:32:04.016Z,18.90
2018-11-21T12:33:04.003Z,18.20
2018-11-21T12:34:04.017Z,18.00
2018-11-21T12:35:03.985Z,18.00
2018-11-21T12:36:03.978Z,18.80
2018-11-21T12:37:03.968Z,19.50
2018-11-21T12:38:03.949Z,19.20
2018-11-21T12:39:03.959Z,18.50
2018-11-21T12:40:03.930Z,19.10
2018-11-21T12:41:03.924Z,20.00
2018-11-21T12:42:03.913Z,20.30
2018-11-21T12:43:03.945Z,20.60
2018-11-21T12:44:03.887Z,20.00
2018-11-21T12:45:03.874Z,19.30
2018-11-21T12:46:03.884Z,19.90
2018-11-21T12:47:03.872Z,19.80
2018-11-21T12:48:03.854Z,18.90
2018-11-21T12:49:03.868Z,20.00
2018-11-21T12:50:03.820Z,19.30
2018-11-21T12:51:03.819Z,20.40
2018-11-21T12:52:03.826Z,18.10